Time;durP1;ratioP1;P1;durP2;ratioP2;P2;SDS_P1;SDS_P2;PMS_P1;PMS_P2;Temp;Humidity;BMP_temperature;BMP_pressure;BME280_temperature;BME280_humidity;BME280_pressure;Samples;Min_cycle;Max_cycle;Signal;HPM_P1;HPM_P2
2021/09/07 00:00:07;;;;;;;16.88;6.28;;;;;;;10.43;100.00;98348.72;5056684;28;20465;-79
2021/09/07 00:02:33;;;;;;;11.63;6.53;;;;;;;10.45;100.00;98369.09;5090302;28;20032;-79
2021/09/07 00:04:58;;;;;;;11.52;7.15;;;;;;;10.40;100.00;98362.25;5056105;28;20040;-79
2021/09/07 00:07:24;;;;;;;16.45;7.20;;;;;;;10.38;100.00;98372.13;5056679;28;20032;-79
2021/09/07 00:09:51;;;;;;;14.98;6.63;;;;;;;10.31;100.00;98360.84;5071135;28;20080;-79
2021/09/07 00:12:17;;;;;;;12.38;7.30;;;;;;;10.16;100.00;98351.75;5070060;28;20484;-79
2021/09/07 00:14:43;;;;;;;14.18;6.75;;;;;;;9.98;100.00;98320.53;5070090;28;20036;-79
2021/09/07 00:17:08;;;;;;;17.30;7.05;;;;;;;10.18;100.00;98362.41;5053463;28;20492;-79
2021/09/07 00:19:34;;;;;;;15.70;6.65;;;;;;;10.20;100.00;98365.84;5070025;28;20035;-79
2021/09/07 00:21:59;;;;;;;14.82;7.70;;;;;;;9.93;100.00;98333.25;5076152;28;20087;-79
2021/09/07 00:24:25;;;;;;;19.90;7.78;;;;;;;10.06;100.00;98354.94;5073995;28;20028;-79
2021/09/07 00:26:51;;;;;;;10.32;6.78;;;;;;;10.18;100.00;98376.59;5072440;28;20029;-79
2021/09/07 00:29:17;;;;;;;14.65;7.55;;;;;;;10.09;100.00;98368.97;5077576;28;20503;-79
2021/09/07 00:31:43;;;;;;;13.13;7.03;;;;;;;10.07;100.00;98362.84;5077229;28;20031;-79
2021/09/07 00:34:08;;;;;;;11.20;6.47;;;;;;;10.14;100.00;98377.72;5073548;28;20025;-79
2021/09/07 00:36:34;;;;;;;11.05;6.43;;;;;;;9.95;100.00;98358.09;5072369;28;20099;-79
2021/09/07 00:38:59;;;;;;;11.48;6.72;;;;;;;10.00;100.00;98366.75;5058904;28;20503;-79
2021/09/07 00:41:25;;;;;;;11.10;5.90;;;;;;;9.95;100.00;98368.78;5095124;28;20043;-79
2021/09/07 00:43:50;;;;;;;9.80;6.20;;;;;;;10.04;100.00;98383.50;5074237;28;20024;-79
2021/09/07 00:46:16;;;;;;;10.63;6.30;;;;;;;9.95;100.00;98384.81;5056926;28;20075;-79
2021/09/07 00:48:42;;;;;;;12.80;7.10;;;;;;;9.82;100.00;98368.47;5069550;28;20052;-79
2021/09/07 00:51:07;;;;;;;9.57;6.55;;;;;;;9.76;100.00;98366.06;5059530;28;20438;-79
2021/09/07 00:53:34;;;;;;;10.98;6.10;;;;;;;9.72;100.00;98356.47;5059957;28;20055;-79
2021/09/07 00:56:00;;;;;;;16.35;6.63;;;;;;;9.56;100.00;98325.19;5074859;28;20586;-79
2021/09/07 00:58:30;;;;;;;11.40;6.30;;;;;;;9.85;100.00;98375.47;5076462;28;20106;-79
2021/09/07 01:00:56;;;;;;;14.80;6.82;;;;;;;9.89;100.00;98368.19;5074131;28;20028;-79
2021/09/07 01:03:21;;;;;;;13.32;7.55;;;;;;;9.87;100.00;98373.63;5073177;28;20499;-79
2021/09/07 01:05:47;;;;;;;10.98;6.30;;;;;;;9.85;100.00;98372.78;5072691;28;20028;-79
2021/09/07 01:08:14;;;;;;;9.38;6.10;;;;;;;9.89;100.00;98385.09;5076277;28;20031;-79
2021/09/07 01:10:41;;;;;;;12.75;6.90;;;;;;;9.78;100.00;98366.03;5076380;28;20017;-79
2021/09/07 01:13:06;;;;;;;13.38;6.10;;;;;;;9.81;100.00;98376.56;5058265;28;20408;-79
2021/09/07 01:15:32;;;;;;;12.65;5.95;;;;;;;9.81;100.00;98388.09;5073023;28;20032;-79
2021/09/07 01:17:58;;;;;;;11.80;6.30;;;;;;;9.67;100.00;98365.63;5073767;28;20181;-79
2021/09/07 01:20:23;;;;;;;9.82;6.35;;;;;;;9.51;100.00;98357.44;5092988;28;20028;-79
2021/09/07 01:22:49;;;;;;;14.27;6.63;;;;;;;9.62;100.00;98376.53;5072802;28;20075;-80
2021/09/07 01:25:17;;;;;;;18.13;6.20;;;;;;;9.42;100.00;98346.28;5075810;28;20396;-79
2021/09/07 01:27:43;;;;;;;14.65;6.50;;;;;;;9.47;100.00;98361.19;5094164;28;20032;-79
2021/09/07 01:30:10;;;;;;;10.70;6.60;;;;;;;9.52;100.00;98375.19;5058910;28;20036;-79
2021/09/07 01:32:35;;;;;;;12.85;6.95;;;;;;;9.45;100.00;98373.72;5094056;28;20446;-79
2021/09/07 01:35:01;;;;;;;13.40;6.45;;;;;;;9.52;100.00;98403.69;5075842;28;20028;-79
2021/09/07 01:37:27;;;;;;;12.27;7.25;;;;;;;9.44;100.00;98377.34;5076012;28;20024;-79
2021/09/07 01:39:52;;;;;;;14.15;6.55;;;;;;;9.33;100.00;98352.03;5075924;28;20032;-78
2021/09/07 01:42:22;;;;;;;10.25;6.43;;;;;;;9.30;100.00;98353.03;5075611;28;20449;-79
2021/09/07 01:44:47;;;;;;;12.10;6.70;;;;;;;9.34;100.00;98364.47;5072633;28;20029;-79
2021/09/07 01:47:13;;;;;;;10.70;6.50;;;;;;;9.37;100.00;98375.88;5057971;28;20032;-79
2021/09/07 01:49:39;;;;;;;14.32;6.75;;;;;;;9.39;100.00;98360.66;5075864;28;20391;-79
2021/09/07 01:52:10;;;;;;;12.07;6.85;;;;;;;9.38;100.00;98360.72;5056510;28;20032;-78
2021/09/07 01:54:39;;;;;;;13.60;6.70;;;;;;;9.28;100.00;98344.25;5058730;28;20028;-79
2021/09/07 01:57:04;;;;;;;9.38;6.38;;;;;;;9.48;100.00;98394.94;5058826;28;20042;-79
2021/09/07 01:59:30;;;;;;;14.48;6.90;;;;;;;9.45;100.00;98372.84;5093855;28;20028;-79
2021/09/07 02:01:55;;;;;;;14.70;7.28;;;;;;;9.51;100.00;98381.47;5072397;28;20153;-79
2021/09/07 02:04:51;;;;;;;;;;;;;;;;;;;;;
2021/09/07 02:07:17;;;;;;;25.95;13.23;;;;;;;9.44;100.00;98371.13;5076985;28;20039;-80
2021/09/07 02:09:42;;;;;;;16.38;9.32;;;;;;;9.34;100.00;98367.13;5093312;28;20131;-78
2021/09/07 02:12:08;;;;;;;16.33;7.50;;;;;;;9.34;100.00;98377.81;5056000;28;20078;-78
2021/09/07 02:14:33;;;;;;;13.93;8.13;;;;;;;9.33;100.00;98384.06;5075238;28;20032;-79
2021/09/07 02:16:59;;;;;;;13.25;7.90;;;;;;;9.31;100.00;98370.81;5054972;28;20105;-79
2021/09/07 02:19:25;;;;;;;13.75;8.00;;;;;;;9.31;100.00;98375.28;5063490;28;20029;-79
2021/09/07 02:21:52;;;;;;;16.02;8.32;;;;;;;9.12;100.00;98372.53;5070370;28;20454;-79
2021/09/07 02:24:17;;;;;;;16.13;8.05;;;;;;;9.23;100.00;98381.81;5074217;28;20093;-78
2021/09/07 02:26:43;;;;;;;17.60;8.90;;;;;;;9.16;100.00;98382.16;5091803;28;20020;-78
2021/09/07 02:29:09;;;;;;;18.83;7.65;;;;;;;9.01;100.00;98367.63;5072423;28;20487;-79
2021/09/07 02:31:35;;;;;;;17.33;7.25;;;;;;;8.93;100.00;98351.09;5093043;28;20495;-79
2021/09/07 02:34:00;;;;;;;11.43;7.15;;;;;;;9.08;100.00;98374.47;5093029;28;20162;-79
2021/09/07 02:36:26;;;;;;;21.02;7.53;;;;;;;8.95;100.00;98357.22;5074521;28;20414;-79
2021/09/07 02:38:54;;;;;;;14.40;7.57;;;;;;;8.97;100.00;98373.19;5054641;28;20024;-79
2021/09/07 02:41:20;;;;;;;17.00;7.20;;;;;;;8.95;100.00;98380.41;5073346;28;20032;-79
2021/09/07 02:43:46;;;;;;;14.57;7.43;;;;;;;8.87;100.00;98367.38;5057595;28;20024;-79
2021/09/07 02:46:11;;;;;;;13.88;7.97;;;;;;;8.75;100.00;98356.34;5072211;28;20063;-79
2021/09/07 02:48:37;;;;;;;16.65;8.02;;;;;;;8.62;100.00;98346.19;5075106;28;20023;-79
2021/09/07 02:51:02;;;;;;;17.30;7.85;;;;;;;8.71;100.00;98364.47;5074970;28;20024;-79
2021/09/07 02:53:28;;;;;;;23.35;10.35;;;;;;;8.73;100.00;98377.75;5057890;28;20467;-79
2021/09/07 02:55:53;;;;;;;21.30;8.07;;;;;;;8.57;100.00;98341.97;5074756;28;20028;-79
2021/09/07 02:58:19;;;;;;;12.45;7.40;;;;;;;8.74;100.00;98378.63;5074471;28;20027;-79
2021/09/07 03:00:44;;;;;;;12.35;7.75;;;;;;;8.85;100.00;98384.38;5074562;28;20031;-79
2021/09/07 03:03:10;;;;;;;19.58;7.43;;;;;;;8.77;100.00;98370.50;5071408;28;20026;-79
2021/09/07 03:05:36;;;;;;;16.77;7.72;;;;;;;8.82;100.00;98377.38;5071266;28;20419;-79
2021/09/07 03:08:02;;;;;;;15.80;6.95;;;;;;;8.66;100.00;98365.59;5050336;28;20497;-79
2021/09/07 03:10:28;;;;;;;33.05;7.82;;;;;;;8.67;100.00;98373.50;5073432;28;20112;-79
2021/09/07 03:12:56;;;;;;;20.00;7.53;;;;;;;8.68;100.00;98374.38;5071134;28;20416;-79
2021/09/07 03:15:23;;;;;;;17.20;7.90;;;;;;;8.67;100.00;98376.19;5073057;28;20035;-79
2021/09/07 03:17:49;;;;;;;18.85;7.60;;;;;;;8.60;100.00;98372.06;5070629;28;20477;-78
2021/09/07 03:20:15;;;;;;;24.15;7.90;;;;;;;8.51;100.00;98358.22;5051725;28;20032;-79
2021/09/07 03:22:41;;;;;;;23.48;7.78;;;;;;;8.48;100.00;98371.69;5073883;28;20117;-79
2021/09/07 03:25:07;;;;;;;21.98;8.00;;;;;;;8.50;100.00;98361.81;5053833;28;20060;-78
2021/09/07 03:27:32;;;;;;;22.25;8.82;;;;;;;8.57;100.00;98387.31;5073047;28;20020;-79
2021/09/07 03:29:58;;;;;;;16.30;7.63;;;;;;;8.41;100.00;98355.06;5053986;28;20078;-79
2021/09/07 03:32:23;;;;;;;20.63;7.88;;;;;;;8.66;100.00;98389.59;5072280;28;20480;-79
2021/09/07 03:34:49;;;;;;;15.52;8.40;;;;;;;8.42;100.00;98354.13;5092713;28;20034;-79
2021/09/07 03:37:15;;;;;;;14.90;8.02;;;;;;;8.64;100.00;98388.81;5071440;28;20033;-78
2021/09/07 03:39:41;;;;;;;18.58;8.07;;;;;;;8.59;100.00;98366.75;5056903;28;20100;-78
2021/09/07 03:42:07;;;;;;;20.17;8.10;;;;;;;8.56;100.00;98362.44;5074462;28;20474;-78
2021/09/07 03:44:33;;;;;;;17.23;7.93;;;;;;;8.62;100.00;98367.50;5074243;28;20059;-78
2021/09/07 03:46:59;;;;;;;11.60;7.68;;;;;;;8.66;100.00;98370.94;5092349;28;20441;-78
2021/09/07 03:49:24;;;;;;;31.15;8.68;;;;;;;8.66;100.00;98381.59;5072082;28;20048;-78
2021/09/07 03:51:50;;;;;;;17.88;8.75;;;;;;;8.54;100.00;98356.31;5074203;28;20416;-78
2021/09/07 03:54:15;;;;;;;16.05;7.95;;;;;;;8.55;100.00;98362.50;5074249;28;20032;-78
2021/09/07 03:56:41;;;;;;;10.70;7.60;;;;;;;8.56;100.00;98367.75;5074543;28;20454;-78
2021/09/07 03:59:06;;;;;;;13.93;7.88;;;;;;;8.54;100.00;98360.75;5092051;28;20031;-78
2021/09/07 04:01:32;;;;;;;14.73;8.05;;;;;;;8.69;100.00;98392.13;5057129;28;20028;-78
2021/09/07 04:03:58;;;;;;;16.05;8.15;;;;;;;8.58;100.00;98370.38;5054270;28;20028;-81
2021/09/07 04:06:23;;;;;;;16.13;8.68;;;;;;;8.64;100.00;98370.97;5071577;28;20059;-79
2021/09/07 04:08:49;;;;;;;17.00;9.23;;;;;;;8.72;100.00;98405.34;5092797;28;20081;-80
2021/09/07 04:11:14;;;;;;;18.10;9.90;;;;;;;8.77;100.00;98391.84;5057479;28;20028;-79
2021/09/07 04:13:40;;;;;;;21.00;10.45;;;;;;;8.53;100.00;98359.03;5073707;28;20457;-81
2021/09/07 04:16:05;;;;;;;24.50;8.93;;;;;;;8.69;100.00;98384.13;5070516;28;20032;-79
2021/09/07 04:18:31;;;;;;;24.15;10.60;;;;;;;8.73;100.00;98391.09;5072064;28;20407;-79
2021/09/07 04:20:57;;;;;;;27.55;11.93;;;;;;;8.69;100.00;98405.47;5073717;28;20196;-79
2021/09/07 04:23:22;;;;;;;36.60;14.75;;;;;;;8.73;100.00;98419.56;5073386;28;20048;-79
2021/09/07 04:25:50;;;;;;;35.95;15.40;;;;;;;8.67;100.00;98397.50;5090627;28;20035;-80
2021/09/07 04:28:16;;;;;;;32.05;14.85;;;;;;;8.57;100.00;98392.63;5074316;28;20028;-80
2021/09/07 04:30:42;;;;;;;30.40;15.85;;;;;;;8.56;100.00;98398.88;5073354;28;20050;-80
2021/09/07 04:33:07;;;;;;;37.00;15.10;;;;;;;8.75;100.00;98426.56;5056752;28;20034;-79
2021/09/07 04:35:33;;;;;;;30.98;14.57;;;;;;;8.65;100.00;98387.84;5056738;28;20513;-79
2021/09/07 04:37:58;;;;;;;28.88;15.25;;;;;;;8.88;100.00;98413.59;5073638;28;20514;-79
2021/09/07 04:40:24;;;;;;;31.50;13.50;;;;;;;8.99;100.00;98427.34;5089956;28;20514;-77
2021/09/07 04:42:53;;;;;;;24.90;13.93;;;;;;;8.86;100.00;98394.13;5073774;28;20510;-79
2021/09/07 04:45:19;;;;;;;26.20;11.90;;;;;;;9.00;100.00;98419.28;5070576;28;20094;-79
2021/09/07 04:47:44;;;;;;;32.47;11.18;;;;;;;9.16;100.00;98431.06;5090361;28;20027;-79
2021/09/07 04:50:10;;;;;;;27.75;11.93;;;;;;;9.08;100.00;98405.59;5073376;28;20028;-79
2021/09/07 04:52:36;;;;;;;31.27;13.15;;;;;;;9.16;100.00;98407.03;5091338;28;20054;-78
2021/09/07 04:55:02;;;;;;;34.58;14.15;;;;;;;9.35;100.00;98431.13;5056343;28;20081;-77
2021/09/07 04:57:27;;;;;;;44.00;14.98;;;;;;;9.24;100.00;98410.25;5089557;28;20550;-78
2021/09/07 04:59:53;;;;;;;52.00;22.38;;;;;;;9.41;100.00;98428.22;5073014;28;20107;-77
2021/09/07 05:02:18;;;;;;;84.57;28.40;;;;;;;9.52;100.00;98427.75;5069570;28;20082;-80
2021/09/07 05:04:44;;;;;;;62.50;22.60;;;;;;;9.58;100.00;98423.00;5068646;28;20056;-77
2021/09/07 05:07:09;;;;;;;46.70;21.00;;;;;;;9.71;100.00;98418.00;5070741;28;20127;-77
2021/09/07 05:09:35;;;;;;;40.97;18.95;;;;;;;9.89;100.00;98426.97;5073529;28;20479;-77
2021/09/07 05:12:00;;;;;;;37.35;16.33;;;;;;;9.99;100.00;98433.66;5087611;28;20395;-78
2021/09/07 05:14:26;;;;;;;40.42;20.15;;;;;;;10.08;100.00;98426.09;5076435;28;20028;-78
2021/09/07 05:16:51;;;;;;;38.65;17.70;;;;;;;10.12;100.00;98427.66;5059196;28;20050;-78
2021/09/07 05:19:17;;;;;;;46.20;20.58;;;;;;;10.11;100.00;98409.91;5073019;28;20055;-77
2021/09/07 05:21:43;;;;;;;43.90;19.75;;;;;;;10.55;100.00;98457.81;5073441;28;20086;-77
2021/09/07 05:24:09;;;;;;;38.67;16.70;;;;;;;10.62;100.00;98419.97;5093501;28;20028;-77
2021/09/07 05:26:34;;;;;;;40.25;16.63;;;;;;;10.91;98.52;98445.31;5056850;28;20028;-78
2021/09/07 05:29:00;;;;;;;36.72;17.95;;;;;;;11.14;96.48;98439.69;5076513;28;20076;-78
2021/09/07 05:31:26;;;;;;;34.70;16.52;;;;;;;12.65;88.02;98443.28;5076674;28;20032;-77
2021/09/07 05:33:51;;;;;;;32.17;15.70;;;;;;;15.19;75.12;98443.81;5075576;28;20024;-77
2021/09/07 05:36:17;;;;;;;35.72;17.02;;;;;;;17.31;61.83;98447.66;5059829;28;20040;-78
2021/09/07 05:38:42;;;;;;;38.90;14.05;;;;;;;18.79;56.33;98452.28;5074519;28;20487;-78
2021/09/07 05:41:08;;;;;;;29.35;13.43;;;;;;;20.08;51.37;98432.44;5056304;28;20028;-78
2021/09/07 05:43:33;;;;;;;27.05;12.80;;;;;;;20.71;48.62;98442.25;5052860;28;20098;-78
2021/09/07 05:45:59;;;;;;;37.08;12.95;;;;;;;19.63;51.06;98454.34;5075878;28;20055;-78
2021/09/07 05:48:25;;;;;;;32.95;13.13;;;;;;;20.41;48.99;98435.81;5075853;28;20059;-78
2021/09/07 05:50:51;;;;;;;32.53;13.18;;;;;;;21.03;47.10;98452.00;5074834;28;20498;-78
2021/09/07 05:53:16;;;;;;;36.35;14.57;;;;;;;22.13;45.02;98420.91;5059139;28;20111;-78
2021/09/07 05:55:42;;;;;;;30.90;13.85;;;;;;;22.59;44.17;98452.81;5092548;28;20055;-79
2021/09/07 05:58:07;;;;;;;29.27;13.07;;;;;;;22.47;43.87;98418.53;5075847;28;20426;-78
2021/09/07 06:00:33;;;;;;;23.70;11.80;;;;;;;23.05;42.49;98452.81;5092342;28;20036;-78
2021/09/07 06:03:04;;;;;;;24.95;10.80;;;;;;;24.93;39.49;98436.19;5075371;28;20024;-79
2021/09/07 06:05:30;;;;;;;23.52;11.98;;;;;;;23.27;42.08;98431.59;5076350;28;20020;-78
2021/09/07 06:07:55;;;;;;;24.50;11.68;;;;;;;23.31;42.25;98449.41;5093399;28;20480;-79
2021/09/07 06:10:21;;;;;;;22.52;10.52;;;;;;;24.44;40.20;98453.28;5058810;28;20020;-78
2021/09/07 06:12:47;;;;;;;33.00;10.50;;;;;;;25.52;38.23;98428.94;5075513;28;20035;-78
2021/09/07 06:15:15;;;;;;;22.00;9.23;;;;;;;26.08;37.17;98439.13;5093500;28;20093;-79
2021/09/07 06:17:40;;;;;;;15.68;9.05;;;;;;;25.45;37.72;98447.03;5071210;28;20032;-79
2021/09/07 06:20:06;;;;;;;15.00;7.78;;;;;;;24.20;39.63;98451.22;5058396;28;20035;-79
2021/09/07 06:22:32;;;;;;;14.52;7.70;;;;;;;24.76;39.27;98450.78;5093127;28;20048;-79
2021/09/07 06:24:58;;;;;;;10.77;7.45;;;;;;;22.77;42.79;98461.13;5074378;28;20032;-78
2021/09/07 06:27:23;;;;;;;13.77;7.28;;;;;;;21.45;45.41;98468.16;5075128;28;20020;-78
2021/09/07 06:29:49;;;;;;;13.95;7.03;;;;;;;22.97;42.97;98457.31;5092752;28;20459;-79
2021/09/07 06:32:16;;;;;;;18.38;7.72;;;;;;;22.75;42.66;98439.47;5054771;28;20392;-78
2021/09/07 06:34:42;;;;;;;25.92;7.93;;;;;;;21.58;45.72;98447.00;5071990;28;20035;-79
2021/09/07 06:37:07;;;;;;;22.08;7.75;;;;;;;23.88;41.51;98429.03;5072001;28;20033;-79
2021/09/07 06:39:33;;;;;;;29.42;8.55;;;;;;;24.79;39.59;98431.31;5067061;28;20029;-79
2021/09/07 06:41:58;;;;;;;20.65;8.65;;;;;;;24.95;38.60;98430.56;5057134;28;20535;-79
2021/09/07 06:44:24;;;;;;;26.00;9.55;;;;;;;24.54;39.76;98437.63;5074332;28;20020;-79
2021/09/07 06:46:49;;;;;;;18.73;7.50;;;;;;;25.46;38.12;98437.78;5055365;28;20043;-79
2021/09/07 06:49:15;;;;;;;17.58;8.35;;;;;;;25.31;37.87;98418.41;5058049;28;20028;-79
2021/09/07 06:51:41;;;;;;;33.17;8.80;;;;;;;25.81;37.04;98445.78;5057816;28;20044;-79
2021/09/07 06:54:06;;;;;;;30.08;12.93;;;;;;;25.15;38.43;98441.09;5074365;28;20035;-79
2021/09/07 06:56:32;;;;;;;19.38;8.35;;;;;;;26.33;36.20;98438.16;5074087;28;20400;-79
2021/09/07 06:58:57;;;;;;;16.30;9.32;;;;;;;26.82;35.14;98430.72;5057375;28;20024;-79
2021/09/07 07:01:23;;;;;;;15.25;8.02;;;;;;;25.86;36.95;98438.78;5057505;28;20039;-79
2021/09/07 07:03:48;;;;;;;56.33;11.90;;;;;;;27.02;35.58;98426.53;5071448;28;20047;-79
2021/09/07 07:06:14;;;;;;;14.02;7.88;;;;;;;27.71;34.14;98436.75;5074292;28;20028;-79
2021/09/07 07:08:39;;;;;;;30.65;9.00;;;;;;;27.59;34.23;98434.56;5070845;28;20115;-79
2021/09/07 07:11:05;;;;;;;16.33;7.93;;;;;;;26.83;34.46;98413.19;5073403;28;20525;-79
2021/09/07 07:13:31;;;;;;;17.02;8.27;;;;;;;27.48;33.46;98418.47;5070500;28;20590;-78
2021/09/07 07:15:56;;;;;;;10.75;6.63;;;;;;;24.94;37.52;98446.13;5054902;28;20055;-78
2021/09/07 07:18:22;;;;;;;23.48;6.82;;;;;;;25.88;36.16;98455.91;5074031;28;20019;-79
2021/09/07 07:20:47;;;;;;;14.25;7.63;;;;;;;27.92;32.59;98441.59;5073813;28;20024;-80
2021/09/07 07:23:13;;;;;;;13.00;6.60;;;;;;;29.23;31.00;98423.66;5053639;28;20044;-79
2021/09/07 07:25:38;;;;;;;10.57;6.32;;;;;;;28.47;31.78;98433.09;5052667;28;20685;-79
2021/09/07 07:28:04;;;;;;;11.73;6.45;;;;;;;28.61;32.03;98423.16;5056521;28;20052;-79
2021/09/07 07:30:31;;;;;;;7.72;6.20;;;;;;;27.51;33.61;98445.59;5053693;28;20085;-79
2021/09/07 07:32:57;;;;;;;16.88;6.75;;;;;;;28.37;32.43;98433.34;5069353;28;20035;-79
2021/09/07 07:35:23;;;;;;;10.32;5.95;;;;;;;29.67;30.22;98420.88;5073803;28;20404;-79
2021/09/07 07:37:49;;;;;;;11.48;5.60;;;;;;;29.73;30.11;98429.25;5070374;28;20094;-79
2021/09/07 07:40:15;;;;;;;14.07;5.63;;;;;;;29.88;29.66;98430.09;5062446;28;20075;-79
2021/09/07 07:42:40;;;;;;;21.20;5.47;;;;;;;30.52;28.62;98416.28;5052158;28;20464;-80
2021/09/07 07:45:06;;;;;;;7.07;5.00;;;;;;;31.37;27.94;98427.97;5056603;28;20063;-79
2021/09/07 07:47:32;;;;;;;10.07;5.07;;;;;;;29.76;28.84;98419.72;5056737;28;20035;-79
2021/09/07 07:49:58;;;;;;;10.32;5.28;;;;;;;30.05;28.98;98427.94;5073285;28;20021;-79
2021/09/07 07:52:24;;;;;;;11.60;5.80;;;;;;;30.19;29.46;98427.00;5053626;28;20055;-79
2021/09/07 07:54:50;;;;;;;8.30;4.90;;;;;;;29.23;30.27;98415.41;5070027;28;20032;-79
2021/09/07 07:57:17;;;;;;;17.27;5.15;;;;;;;30.24;29.39;98438.31;5073434;28;20081;-80
2021/09/07 07:59:43;;;;;;;14.32;5.50;;;;;;;30.34;29.26;98422.25;5073570;28;20035;-80
2021/09/07 08:02:08;;;;;;;7.03;4.80;;;;;;;28.73;30.90;98414.25;5056461;28;20392;-80
2021/09/07 08:04:34;;;;;;;10.88;4.93;;;;;;;29.78;30.09;98412.13;5069691;28;20040;-81
2021/09/07 08:06:59;;;;;;;8.52;4.60;;;;;;;31.31;28.04;98416.88;5080202;28;20056;-81
2021/09/07 08:09:25;;;;;;;7.32;4.55;;;;;;;32.26;27.18;98422.34;5091379;28;20020;-80
2021/09/07 08:11:51;;;;;;;8.82;4.45;;;;;;;31.67;27.54;98401.75;5056414;28;20114;-80
2021/09/07 08:14:16;;;;;;;5.93;4.78;;;;;;;32.43;26.99;98395.91;5056237;28;20032;-80
2021/09/07 08:16:42;;;;;;;36.75;7.13;;;;;;;31.93;27.73;98405.66;5091250;28;20047;-80
2021/09/07 08:19:07;;;;;;;9.98;5.03;;;;;;;31.76;27.58;98405.16;5071308;28;20063;-80
2021/09/07 08:21:33;;;;;;;12.13;6.60;;;;;;;31.47;27.85;98406.28;5069831;28;20028;-80
2021/09/07 08:23:58;;;;;;;8.15;4.50;;;;;;;31.87;27.86;98412.03;5063422;28;20045;-80
2021/09/07 08:26:24;;;;;;;15.10;5.40;;;;;;;31.89;27.11;98387.75;5052876;28;20483;-80
2021/09/07 08:28:49;;;;;;;6.93;4.80;;;;;;;31.67;27.74;98400.88;5049601;28;20028;-79
2021/09/07 08:31:15;;;;;;;14.95;4.65;;;;;;;32.30;26.60;98393.16;5050971;28;20024;-79
2021/09/07 08:33:40;;;;;;;9.55;4.05;;;;;;;33.78;24.69;98380.28;5069464;28;20460;-79
2021/09/07 08:36:06;;;;;;;11.40;4.28;;;;;;;33.91;24.61;98401.59;5052974;28;20507;-79
2021/09/07 08:38:32;;;;;;;6.07;3.60;;;;;;;32.39;25.38;98370.59;5052951;28;20024;-79
2021/09/07 08:40:58;;;;;;;9.60;3.60;;;;;;;30.57;27.50;98384.28;5054726;28;20020;-79
2021/09/07 08:43:24;;;;;;;10.20;3.90;;;;;;;31.15;26.66;98384.88;5053582;28;20079;-79
2021/09/07 08:45:51;;;;;;;5.43;3.78;;;;;;;30.89;26.59;98362.56;5070273;28;20025;-79
2021/09/07 08:48:17;;;;;;;9.23;3.20;;;;;;;31.74;25.92;98367.69;5073240;28;20451;-79
2021/09/07 08:50:43;;;;;;;7.75;3.47;;;;;;;32.02;25.18;98371.16;5073266;28;20030;-78
2021/09/07 08:53:08;;;;;;;6.00;3.28;;;;;;;32.35;24.43;98360.97;5054265;28;20033;-78
2021/09/07 08:55:34;;;;;;;7.80;3.47;;;;;;;33.44;23.65;98364.84;5069802;28;20032;-79
2021/09/07 08:58:00;;;;;;;5.53;3.33;;;;;;;35.21;22.52;98352.41;5049539;28;20115;-79
2021/09/07 09:00:27;;;;;;;8.45;3.85;;;;;;;35.87;20.94;98344.06;5055910;28;20040;-79
2021/09/07 09:02:53;;;;;;;5.07;3.30;;;;;;;34.70;21.49;98349.09;5073198;28;20029;-79
2021/09/07 09:05:31;;;;;;;4.25;2.83;;;;;;;35.65;20.47;98345.69;5072821;28;20490;-79
2021/09/07 09:07:57;;;;;;;6.82;3.78;;;;;;;35.96;20.22;98332.59;5056121;28;20029;-80
2021/09/07 09:10:24;;;;;;;5.95;3.50;;;;;;;36.78;19.63;98328.88;5072676;28;20515;-79
2021/09/07 09:13:04;;;;;;;6.85;3.90;;;;;;;35.66;20.42;98327.00;5056120;28;20115;-80
2021/09/07 09:15:30;;;;;;;12.77;4.32;;;;;;;35.45;19.63;98305.22;5069454;28;20039;-80
2021/09/07 09:18:07;;;;;;;5.35;2.53;;;;;;;34.45;17.51;98265.72;5051443;28;20025;-80
2021/09/07 09:20:32;;;;;;;7.35;2.92;;;;;;;34.25;17.69;98276.16;5074210;28;20043;-79
2021/09/07 09:22:59;;;;;;;7.60;2.60;;;;;;;35.25;17.43;98297.16;5072502;28;20060;-79
2021/09/07 09:25:33;;;;;;;4.00;2.60;;;;;;;33.00;18.07;98287.13;5055332;28;20162;-79
2021/09/07 09:27:58;;;;;;;4.88;2.67;;;;;;;33.03;18.50;98295.84;5072716;28;20016;-80
2021/09/07 09:30:25;;;;;;;8.35;2.58;;;;;;;33.49;17.54;98276.25;5072481;28;20420;-81
2021/09/07 09:32:52;;;;;;;12.07;2.72;;;;;;;34.05;16.48;98281.00;5069326;28;20029;-79
2021/09/07 09:35:18;;;;;;;5.65;2.60;;;;;;;34.38;17.10;98287.16;5053630;28;20043;-80
2021/09/07 09:37:54;;;;;;;8.25;2.97;;;;;;;34.00;17.23;98283.59;5073789;28;20024;-80
2021/09/07 09:40:20;;;;;;;11.32;2.75;;;;;;;34.35;15.57;98265.38;5055509;28;20397;-80
2021/09/07 09:42:47;;;;;;;5.15;2.55;;;;;;;33.74;16.48;98271.63;5055621;28;20036;-80
2021/09/07 09:45:13;;;;;;;5.50;2.35;;;;;;;33.43;16.63;98271.56;5072256;28;20082;-80
2021/09/07 09:47:40;;;;;;;9.65;2.60;;;;;;;34.51;16.48;98281.47;5072474;28;20048;-80
2021/09/07 09:50:10;;;;;;;7.97;2.42;;;;;;;35.46;15.73;98279.94;5073376;28;20012;-80
2021/09/07 09:52:38;;;;;;;3.63;2.40;;;;;;;35.86;14.81;98269.09;5071990;28;20035;-80
2021/09/07 09:55:05;;;;;;;4.97;2.40;;;;;;;36.08;14.52;98266.63;5064686;28;20501;-80
2021/09/07 09:57:32;;;;;;;7.25;2.47;;;;;;;35.34;14.54;98254.00;5070751;28;20036;-80
2021/09/07 09:59:58;;;;;;;6.47;2.30;;;;;;;34.83;15.24;98255.25;5071811;28;20090;-80
2021/09/07 10:02:24;;;;;;;5.32;2.40;;;;;;;33.98;15.03;98249.66;5068720;28;20408;-79
2021/09/07 10:04:50;;;;;;;7.43;2.63;;;;;;;33.12;16.38;98263.22;5062161;28;20031;-80
2021/09/07 10:07:17;;;;;;;5.75;2.80;;;;;;;33.67;15.63;98258.84;5052102;28;20119;-80
2021/09/07 10:09:43;;;;;;;4.90;2.67;;;;;;;33.24;16.06;98253.97;5068401;28;20096;-80
2021/09/07 10:12:13;;;;;;;13.18;2.85;;;;;;;34.02;15.32;98267.56;5067831;28;20377;-80
2021/09/07 10:14:43;;;;;;;4.50;2.55;;;;;;;33.83;14.59;98241.66;5071582;28;20511;-79
2021/09/07 10:20:16;;;;;;;5.88;2.45;;;;;;;34.02;15.46;98250.91;5066246;28;20056;-79
2021/09/07 10:25:55;;;;;;;7.32;3.30;;;;;;;33.91;15.42;98251.63;5071487;28;20510;-80
2021/09/07 10:28:41;;;;;;;14.45;2.88;;;;;;;34.83;15.09;98249.69;5068728;28;20033;-80
2021/09/07 10:31:07;;;;;;;6.60;2.17;;;;;;;34.40;14.90;98243.28;5068009;28;20032;-78
2021/09/07 10:33:43;;;;;;;9.07;3.03;;;;;;;34.08;14.28;98242.50;5071576;28;20461;-78
2021/09/07 10:36:10;;;;;;;9.15;2.38;;;;;;;34.99;14.82;98252.91;5054494;28;20028;-79
2021/09/07 10:38:56;;;;;;;6.03;2.30;;;;;;;35.89;13.99;98238.81;5071012;28;20111;-80
2021/09/07 10:41:35;;;;;;;7.63;2.20;;;;;;;34.78;14.79;98238.41;5054286;28;20032;-78
2021/09/07 10:44:01;;;;;;;10.77;2.38;;;;;;;35.03;14.57;98231.91;5072288;28;20025;-78
2021/09/07 10:47:00;;;;;;;10.57;2.67;;;;;;;34.47;14.94;98226.53;5072189;28;20029;-78
2021/09/07 10:49:32;;;;;;;4.80;2.40;;;;;;;34.06;15.09;98218.78;5010923;28;20456;-79
2021/09/07 10:52:12;;;;;;;6.28;2.17;;;;;;;34.84;14.94;98225.50;5072286;28;20016;-79
2021/09/07 10:54:41;;;;;;;3.92;2.20;;;;;;;35.02;14.58;98219.06;5054052;28;20067;-81
2021/09/07 10:57:08;;;;;;;6.03;2.10;;;;;;;34.23;14.65;98206.91;5067486;28;20029;-79
2021/09/07 10:59:54;;;;;;;3.88;2.28;;;;;;;34.09;15.09;98207.22;5050785;28;20099;-79
2021/09/07 11:02:41;;;;;;;8.75;3.05;;;;;;;35.12;14.91;98224.97;5067005;28;20036;-80
2021/09/07 11:05:25;;;;;;;11.63;3.17;;;;;;;35.77;13.77;98215.66;5037445;28;20030;-79
2021/09/07 11:08:07;;;;;;;4.20;2.55;;;;;;;35.81;13.96;98216.88;5062794;28;20024;-79
2021/09/07 11:10:33;;;;;;;;;;;;;;;35.31;13.97;98210.78;5070742;28;20020;-79
2021/09/07 11:13:01;;;;;;;3.95;2.35;;;;;;;35.15;15.26;98210.56;5067474;28;19917;-79
2021/09/07 11:15:29;;;;;;;6.53;2.38;;;;;;;35.60;15.00;98209.06;5067678;28;20024;-79
2021/09/07 11:18:01;;;;;;;6.18;2.58;;;;;;;35.41;15.02;98210.19;5067346;28;20017;-79
2021/09/07 11:20:30;;;;;;;87.57;9.13;;;;;;;34.83;15.30;98191.28;5067465;28;20103;-79
2021/09/07 11:22:57;;;;;;;8.90;2.92;;;;;;;35.79;14.62;98177.28;5050565;28;20051;-79
2021/09/07 11:25:23;;;;;;;21.13;4.05;;;;;;;36.23;15.00;98191.75;5068359;28;20028;-79
2021/09/07 11:28:00;;;;;;;12.05;2.58;;;;;;;35.46;15.38;98196.41;5050573;28;20047;-79
2021/09/07 11:30:51;;;;;;;8.57;2.47;;;;;;;34.95;15.12;98196.06;5067164;28;20479;-79